LGAL/AXD METAR and TAF weather

Enter ICAO airport designator
Station Type Date Time Source
LGAL METAR 2023/02/01 12:50 UTC NOAA

LGAL 011250Z 31008KT 9999 SCT035 10/M05 Q1018


Station Type Date Time Source
LGAL Decoded METAR 2023/02/01 12:50 UTC NOAA

Alexandroupoli Airport , Greece (LGAL) 40-51N 025-55E 3M
Feb 01, 2023 - 07:50 AM EST / 2023.02.01 1250 UTC
Wind: from the NW (310 degrees) at 9 MPH (8 KT):0
Visibility: greater than 7 mile(s):0
Sky conditions: partly cloudy
Temperature: 50 F (10 C)
Dew Point: 23 F (-5 C)
Relative Humidity: 34%
Pressure (altimeter): 30.06 in. Hg (1018 hPa)
ob: LGAL 011250Z 31008KT 9999 SCT035 10/M05 Q1018
cycle: 13

Station Type Date Time Source
LGAL TAF 2012/09/21 03:06 UTC NOAA

TAF TAF LGAL 210200Z 2103/2115 03012G22KT 9999 FEW020 SCT070 PROB30
TEMPO 2103/2106 6000 RA SCT015 BKN030 PROB30

Example: see airport list